This is the latest recevied weather packets stored in our database for station/object SV2RCS-13. If no packets are shown the sender has not sent any weather packets the latest 10 day(s).
| Time | Temp. | Humidity | Pressure | Rain* | Wind** | Luminosity | Snow |
|---|---|---|---|---|---|---|---|
| 1777760220 | 10° C | 45% | 1018.3 hPa | - | - | - | - |
| 1777759619 | 10.56° C | 43% | 1018.2 hPa | - | - | - | - |
| 1777759019 | 10.56° C | 42% | 1018.3 hPa | - | - | - | - |
| 1777758419 | 10.56° C | 41% | 1018.4 hPa | - | - | - | - |
| 1777757819 | 10.56° C | 40% | 1018.5 hPa | - | - | - | - |
| 1777757218 | 10.56° C | 41% | 1018.5 hPa | - | - | - | - |
| 1777756619 | 10° C | 46% | 1019 hPa | - | - | - | - |
| 1777756019 | 9.44° C | 46% | 1018.9 hPa | - | - | - | - |
| 1777755419 | 9.44° C | 46% | 1018.9 hPa | - | - | - | - |
| 1777754819 | 10° C | 46% | 1018.8 hPa | - | - | - | - |
| 1777754219 | 10° C | 44% | 1018.8 hPa | - | - | - | - |
| 1777753619 | 10.56° C | 43% | 1018.7 hPa | - | - | - | - |
| 1777753019 | 10.56° C | 44% | 1018.7 hPa | - | - | - | - |
| 1777752419 | 10.56° C | 42% | 1018.6 hPa | - | - | - | - |
| 1777751819 | 10.56° C | 41% | 1018.7 hPa | - | - | - | - |
| 1777751219 | 10.56° C | 41% | 1018.6 hPa | - | - | - | - |
| 1777750619 | 10.56° C | 40% | 1018.4 hPa | - | - | - | - |
| 1777750019 | 10.56° C | 41% | 1018.5 hPa | - | - | - | - |
| 1777749419 | 10.56° C | 40% | 1018.3 hPa | - | - | - | - |
| 1777748819 | 11.11° C | 40% | 1018.3 hPa | - | - | - | - |
| 1777748218 | 11.11° C | 37% | 1018.3 hPa | - | - | - | - |
| 1777747619 | 11.11° C | 36% | 1018.2 hPa | - | - | - | - |
| 1777747019 | 11.11° C | 36% | 1018.1 hPa | - | - | - | - |
| 1777746419 | 11.11° C | 36% | 1018 hPa | - | - | - | - |
| 1777745819 | 11.11° C | 35% | 1017.9 hPa | - | - | - | - |
* Rain since midnight (hover to see other rain measurements)
** Current wind speed in m/s (hover to see current wind gust speed)